Time;durP1;ratioP1;P1;durP2;ratioP2;P2;SDS_P1;SDS_P2;PMS_P1;PMS_P2;Temp;Humidity;BMP_temperature;BMP_pressure;BME280_temperature;BME280_humidity;BME280_pressure;Samples;Min_cycle;Max_cycle;Signal;HPM_P1;HPM_P2
2023/07/26 00:01:02;;;;;;;8.88;4.60;;;13.50;99.90;;;;;;5118242;27;20429;-39
2023/07/26 00:03:28;;;;;;;6.60;3.78;;;13.50;99.90;;;;;;5118247;27;20172;-39
2023/07/26 00:05:53;;;;;;;7.10;3.72;;;13.40;99.90;;;;;;5099110;27;20057;-39
2023/07/26 00:08:19;;;;;;;6.50;3.67;;;13.50;99.90;;;;;;5117942;27;20086;-39
2023/07/26 00:10:48;;;;;;;5.70;4.38;;;13.40;99.90;;;;;;5117630;27;20431;-39
2023/07/26 00:13:17;;;;;;;7.93;4.10;;;13.40;99.90;;;;;;5117708;27;20053;-39
2023/07/26 00:15:43;;;;;;;5.65;4.13;;;13.40;99.90;;;;;;5114510;27;20150;-39
2023/07/26 00:18:09;;;;;;;5.10;4.03;;;13.40;99.90;;;;;;5114316;27;20047;-39
2023/07/26 00:20:34;;;;;;;7.63;4.82;;;13.30;99.90;;;;;;5113980;27;20389;-39
2023/07/26 00:23:00;;;;;;;7.45;4.78;;;13.30;99.90;;;;;;5116511;27;20046;-39
2023/07/26 00:25:26;;;;;;;6.50;4.00;;;13.30;99.90;;;;;;5095268;27;20197;-39
2023/07/26 00:27:52;;;;;;;7.43;4.95;;;13.30;99.90;;;;;;5114647;27;20742;-39
2023/07/26 00:30:17;;;;;;;6.35;4.82;;;13.30;99.90;;;;;;5113092;27;20039;-39
2023/07/26 00:32:43;;;;;;;8.98;4.90;;;13.30;99.90;;;;;;5114162;27;20164;-39
2023/07/26 00:35:20;;;;;;;7.88;4.97;;;13.20;99.90;;;;;;5114142;27;20489;-39
2023/07/26 00:37:46;;;;;;;7.07;4.32;;;13.20;99.90;;;;;;5096625;27;20379;-39
2023/07/26 00:40:12;;;;;;;7.10;5.22;;;13.20;99.90;;;;;;5113081;27;20412;-39
2023/07/26 00:42:38;;;;;;;7.53;4.75;;;13.20;99.90;;;;;;5116582;27;20449;-39
2023/07/26 00:45:04;;;;;;;7.45;5.43;;;13.10;99.90;;;;;;5115913;27;20078;-39
2023/07/26 00:47:29;;;;;;;9.77;5.30;;;13.10;99.90;;;;;;5116827;27;20043;-39
2023/07/26 00:49:55;;;;;;;8.63;5.43;;;13.10;99.90;;;;;;5116118;27;20217;-39
2023/07/26 00:52:23;;;;;;;5.55;4.95;;;13.10;99.90;;;;;;5042195;27;20058;-39
2023/07/26 00:54:49;;;;;;;11.25;5.68;;;13.10;99.90;;;;;;5113241;27;20050;-39
2023/07/26 00:57:14;;;;;;;6.65;5.32;;;13.00;99.90;;;;;;5113968;27;20524;-38
2023/07/26 00:59:40;;;;;;;6.72;5.05;;;13.00;99.90;;;;;;5114274;27;20134;-38
2023/07/26 01:02:06;;;;;;;7.38;5.40;;;12.90;99.90;;;;;;5112774;27;20413;-38
2023/07/26 01:04:31;;;;;;;6.68;5.13;;;12.80;99.90;;;;;;5116376;27;20397;-38
2023/07/26 01:07:08;;;;;;;7.85;5.80;;;12.80;99.90;;;;;;5112991;27;20063;-38
2023/07/26 01:09:43;;;;;;;8.23;5.43;;;12.80;99.90;;;;;;5093406;27;20062;-38
2023/07/26 01:12:18;;;;;;;6.35;5.70;;;12.70;99.90;;;;;;5093869;27;20081;-38
2023/07/26 01:14:56;;;;;;;6.65;4.90;;;12.70;99.90;;;;;;5114531;27;20053;-38
2023/07/26 01:17:21;;;;;;;6.35;5.75;;;12.60;99.90;;;;;;5095277;27;20057;-39
2023/07/26 01:19:47;;;;;;;9.02;5.60;;;12.60;99.90;;;;;;5111963;27;20046;-39
2023/07/26 01:22:13;;;;;;;8.65;5.68;;;12.50;99.90;;;;;;5094032;27;20047;-39
2023/07/26 01:24:38;;;;;;;6.70;5.28;;;12.50;99.90;;;;;;5110700;27;20485;-38
2023/07/26 01:27:04;;;;;;;7.93;5.35;;;12.40;99.90;;;;;;5113163;27;20071;-38
2023/07/26 01:29:30;;;;;;;6.50;4.90;;;12.40;99.90;;;;;;5115479;27;20525;-38
2023/07/26 01:31:56;;;;;;;7.43;5.70;;;12.40;99.90;;;;;;5113998;27;20134;-38
2023/07/26 01:34:22;;;;;;;7.18;5.70;;;12.30;99.90;;;;;;5115737;27;20125;-38
2023/07/26 01:36:51;;;;;;;8.73;5.53;;;12.30;99.90;;;;;;5112488;27;20438;-38
2023/07/26 01:39:18;;;;;;;9.00;5.72;;;12.30;99.90;;;;;;5094332;27;20620;-39
2023/07/26 01:41:45;;;;;;;7.10;5.63;;;12.30;99.90;;;;;;5111980;27;20070;-39
2023/07/26 01:44:12;;;;;;;6.95;5.82;;;12.30;99.90;;;;;;5111180;27;20074;-39
2023/07/26 01:46:37;;;;;;;7.53;5.97;;;12.30;99.90;;;;;;5113761;27;20046;-39
2023/07/26 01:49:03;;;;;;;7.97;6.22;;;12.20;99.90;;;;;;5113124;27;20051;-39
2023/07/26 01:51:28;;;;;;;6.95;5.88;;;12.20;99.90;;;;;;5114508;27;20050;-38
2023/07/26 01:53:54;;;;;;;6.10;5.50;;;12.20;99.90;;;;;;5113128;27;20126;-39
2023/07/26 01:56:20;;;;;;;9.85;6.13;;;12.20;99.90;;;;;;5116511;27;20047;-39
2023/07/26 01:58:46;;;;;;;7.07;5.25;;;12.10;99.90;;;;;;5113734;27;20534;-39
2023/07/26 02:01:11;;;;;;;6.47;5.38;;;12.10;99.90;;;;;;5108113;27;20550;-38
2023/07/26 02:03:37;;;;;;;8.07;5.63;;;12.10;99.90;;;;;;5101716;27;20043;-39
2023/07/26 02:06:03;;;;;;;5.75;5.15;;;12.10;99.90;;;;;;5077638;27;20090;-39
2023/07/26 02:08:28;;;;;;;8.10;5.53;;;12.00;99.90;;;;;;5106428;27;20040;-38
2023/07/26 02:10:54;;;;;;;6.18;5.25;;;12.00;99.90;;;;;;5103742;27;20059;-38
2023/07/26 02:13:20;;;;;;;9.50;4.85;;;12.00;99.90;;;;;;5129286;27;20055;-38
2023/07/26 02:15:46;;;;;;;8.90;5.25;;;12.00;99.90;;;;;;5114835;27;20039;-38
2023/07/26 02:18:12;;;;;;;9.82;5.95;;;12.00;99.90;;;;;;5115571;27;20378;-39
2023/07/26 02:20:38;;;;;;;8.27;5.07;;;12.10;99.90;;;;;;5114388;27;20120;-38
2023/07/26 02:23:04;;;;;;;8.32;5.68;;;12.00;99.90;;;;;;5113468;27;20435;-39
2023/07/26 02:25:29;;;;;;;7.68;5.50;;;12.10;99.90;;;;;;5122448;27;20485;-39
2023/07/26 02:27:55;;;;;;;8.07;5.70;;;12.10;99.90;;;;;;5101763;27;20457;-39
2023/07/26 02:30:21;;;;;;;7.88;5.20;;;12.10;99.90;;;;;;5135772;27;20082;-38
2023/07/26 02:32:46;;;;;;;7.18;5.65;;;12.10;99.90;;;;;;5118475;27;20525;-39
2023/07/26 02:35:12;;;;;;;6.15;4.82;;;12.10;99.90;;;;;;5090371;27;20419;-39
2023/07/26 02:37:38;;;;;;;10.27;5.28;;;12.10;99.90;;;;;;5089442;28;20145;-38
2023/07/26 02:40:04;;;;;;;8.93;5.85;;;12.10;99.90;;;;;;5090822;27;20047;-39
2023/07/26 02:42:30;;;;;;;7.18;4.82;;;12.10;99.90;;;;;;5097423;27;20520;-38
2023/07/26 02:44:55;;;;;;;9.32;5.63;;;12.10;99.90;;;;;;5092279;27;20043;-39
2023/07/26 02:47:21;;;;;;;7.63;5.80;;;12.20;99.90;;;;;;5115663;27;20066;-39
2023/07/26 02:49:47;;;;;;;7.30;5.38;;;12.20;99.90;;;;;;5114767;27;20085;-38
2023/07/26 02:52:13;;;;;;;5.93;5.13;;;12.30;99.90;;;;;;5115224;27;20043;-38
2023/07/26 02:54:39;;;;;;;6.65;5.18;;;12.30;99.90;;;;;;5115206;27;20043;-39
2023/07/26 02:57:05;;;;;;;6.97;5.72;;;12.30;99.90;;;;;;5116126;27;20047;-39
2023/07/26 02:59:31;;;;;;;6.13;5.38;;;12.40;99.90;;;;;;5115080;27;20043;-39
2023/07/26 03:01:56;;;;;;;6.38;5.45;;;12.40;99.90;;;;;;5096600;28;20523;-39
2023/07/26 03:04:22;;;;;;;4.40;3.75;;;12.50;99.90;;;;;;5115884;27;20390;-39
2023/07/26 03:06:48;;;;;;;5.93;4.53;;;12.50;99.90;;;;;;5115891;28;20043;-39
2023/07/26 03:09:13;;;;;;;4.90;3.47;;;12.60;99.90;;;;;;5102013;27;20058;-38
2023/07/26 03:11:39;;;;;;;4.13;3.17;;;12.60;99.90;;;;;;5134169;27;20181;-39
2023/07/26 03:14:05;;;;;;;3.78;2.60;;;12.70;99.90;;;;;;5116924;27;20122;-39
2023/07/26 03:16:30;;;;;;;6.18;2.78;;;12.70;99.90;;;;;;5114590;27;20223;-39
2023/07/26 03:18:56;;;;;;;5.57;2.95;;;12.80;99.90;;;;;;5115150;27;20043;-39
2023/07/26 03:21:22;;;;;;;4.40;2.70;;;12.80;99.90;;;;;;5113792;27;20097;-39
2023/07/26 03:23:48;;;;;;;4.20;2.33;;;12.80;99.90;;;;;;5107254;27;20138;-38
2023/07/26 03:26:14;;;;;;;2.80;2.28;;;12.80;99.90;;;;;;5114472;27;20039;-39
2023/07/26 03:28:39;;;;;;;4.07;2.45;;;12.90;99.90;;;;;;5115159;27;20046;-38
2023/07/26 03:31:05;;;;;;;5.30;2.47;;;12.90;99.90;;;;;;5114069;27;20047;-39
2023/07/26 03:33:31;;;;;;;9.07;2.40;;;12.90;99.90;;;;;;5096198;28;20490;-39
2023/07/26 03:35:56;;;;;;;6.20;2.40;;;12.90;99.90;;;;;;5114942;27;20088;-39
2023/07/26 03:38:22;;;;;;;20.30;4.15;;;13.00;99.90;;;;;;5115165;27;20129;-38
2023/07/26 03:40:48;;;;;;;16.15;4.78;;;13.00;99.90;;;;;;5113903;27;20043;-39
2023/07/26 03:43:14;;;;;;;9.00;3.30;;;12.90;99.90;;;;;;5110542;28;20463;-39
2023/07/26 03:45:41;;;;;;;5.80;3.10;;;12.90;99.90;;;;;;5075065;28;20060;-39
2023/07/26 03:48:06;;;;;;;5.38;2.35;;;12.80;99.90;;;;;;5088683;28;20059;-39
2023/07/26 03:50:33;;;;;;;4.97;2.20;;;12.80;99.90;;;;;;5116707;27;20039;-41
2023/07/26 03:52:59;;;;;;;7.18;2.38;;;12.70;99.90;;;;;;5118622;27;20066;-39
2023/07/26 03:55:24;;;;;;;3.85;2.53;;;12.70;99.90;;;;;;5118359;27;20052;-39
2023/07/26 03:57:50;;;;;;;6.22;2.40;;;12.60;99.90;;;;;;5099752;27;20116;-39
2023/07/26 04:00:16;;;;;;;6.57;2.85;;;12.60;99.90;;;;;;5098866;27;20372;-39
2023/07/26 04:02:41;;;;;;;5.65;2.90;;;12.50;99.90;;;;;;5117722;27;20622;-39
2023/07/26 04:05:07;;;;;;;7.05;2.85;;;12.40;99.90;;;;;;5115239;27;20047;-39
2023/07/26 04:07:37;;;;;;;5.38;2.97;;;12.40;99.90;;;;;;5116392;27;20080;-39
2023/07/26 06:30:08;;;;;;;6.68;4.32;;;13.20;99.90;;;;;;5083351;27;20498;-39
2023/07/26 07:05:44;;;;;;;7.47;5.00;;;13.00;99.90;;;;;;5101773;27;20966;-39
2023/07/26 07:08:10;;;;;;;13.90;5.55;;;13.00;99.90;;;;;;5103916;27;20043;-39
2023/07/26 07:10:36;;;;;;;10.15;5.57;;;13.00;99.90;;;;;;5096793;27;20046;-39
2023/07/26 07:13:01;;;;;;;9.18;5.63;;;13.10;99.90;;;;;;5135040;27;20046;-39
2023/07/26 07:15:27;;;;;;;13.93;6.38;;;13.20;99.90;;;;;;5123962;27;20122;-39
2023/07/26 07:17:53;;;;;;;8.55;5.90;;;13.20;99.90;;;;;;5114363;27;20059;-39
2023/07/26 07:20:18;;;;;;;10.18;6.20;;;13.30;99.90;;;;;;5113044;27;20043;-39
2023/07/26 07:22:44;;;;;;;8.48;5.40;;;13.40;99.90;;;;;;5114981;27;20043;-39
2023/07/26 07:25:09;;;;;;;20.52;6.90;;;13.40;99.90;;;;;;5110371;27;20074;-39
2023/07/26 07:27:35;;;;;;;7.18;4.82;;;13.50;99.90;;;;;;5118349;27;20043;-38
2023/07/26 07:30:02;;;;;;;10.80;4.78;;;13.40;99.90;;;;;;5116645;27;20540;-39
2023/07/26 07:32:27;;;;;;;7.38;4.25;;;13.40;99.90;;;;;;5118242;27;20039;-40
2023/07/26 07:34:53;;;;;;;7.25;4.03;;;13.40;99.90;;;;;;5119513;27;20049;-39
2023/07/26 07:37:20;;;;;;;4.57;3.97;;;13.40;99.90;;;;;;5099866;27;20054;-39
2023/07/26 07:39:45;;;;;;;5.88;3.88;;;13.50;99.90;;;;;;5117413;27;20050;-39
2023/07/26 07:42:11;;;;;;;7.07;4.53;;;13.60;99.90;;;;;;5082043;27;20413;-40
2023/07/26 07:44:37;;;;;;;4.82;3.65;;;13.90;99.90;;;;;;5125894;27;20191;-39
2023/07/26 07:47:02;;;;;;;7.28;4.03;;;14.20;99.90;;;;;;5138621;27;20050;-39
2023/07/26 07:49:28;;;;;;;4.90;3.35;;;14.50;99.90;;;;;;5137575;27;20038;-39
2023/07/26 07:51:54;;;;;;;4.18;3.33;;;14.80;99.90;;;;;;5102040;27;20082;-39
2023/07/26 07:54:19;;;;;;;6.28;4.25;;;15.30;99.90;;;;;;5119132;27;20043;-39
2023/07/26 07:56:47;;;;;;;6.03;3.85;;;15.90;99.90;;;;;;5118301;27;20051;-39
2023/07/26 07:59:13;;;;;;;6.30;3.92;;;16.30;99.90;;;;;;5117130;27;20049;-39
2023/07/26 08:01:39;;;;;;;5.63;4.35;;;16.60;99.90;;;;;;5117716;27;20404;-39
2023/07/26 08:04:04;;;;;;;6.55;4.95;;;17.10;99.90;;;;;;5082983;27;20055;-39
2023/07/26 08:06:32;;;;;;;7.05;6.00;;;17.30;99.90;;;;;;5116884;27;20576;-39
2023/07/26 08:08:58;;;;;;;7.22;5.85;;;17.60;99.90;;;;;;5071570;28;20094;-38
2023/07/26 08:11:24;;;;;;;5.65;4.75;;;17.90;99.90;;;;;;5128975;27;20122;-39
2023/07/26 08:13:49;;;;;;;6.95;5.57;;;18.10;99.90;;;;;;5118682;27;20570;-39
2023/07/26 08:16:15;;;;;;;6.32;4.50;;;18.30;99.90;;;;;;5098995;27;20507;-39
2023/07/26 08:18:41;;;;;;;5.40;4.80;;;18.60;99.90;;;;;;5117809;27;20047;-39
2023/07/26 08:21:06;;;;;;;7.38;4.60;;;19.00;99.90;;;;;;5116190;27;20090;-39
2023/07/26 08:23:32;;;;;;;5.15;4.00;;;19.30;99.90;;;;;;5111495;27;20245;-39
2023/07/26 08:26:09;;;;;;;5.72;4.00;;;19.60;99.90;;;;;;5114879;27;20034;-39
2023/07/26 08:28:35;;;;;;;6.07;3.85;;;19.70;99.90;;;;;;5118999;27;20063;-39
2023/07/26 08:31:01;;;;;;;6.93;4.15;;;19.60;99.90;;;;;;5137072;27;20043;-39
2023/07/26 08:33:27;;;;;;;4.63;3.95;;;19.30;99.90;;;;;;5126014;27;20099;-40
2023/07/26 08:35:53;;;;;;;4.90;3.83;;;19.00;99.90;;;;;;5136651;27;20057;-39
2023/07/26 08:38:18;;;;;;;7.97;4.10;;;18.70;99.90;;;;;;5137987;27;20050;-40
2023/07/26 08:40:49;;;;;;;5.95;3.35;;;18.50;99.90;;;;;;5136920;27;20057;-39
2023/07/26 08:43:18;;;;;;;4.03;2.67;;;18.20;99.90;;;;;;5128325;27;20671;-39
2023/07/26 08:45:45;;;;;;;4.65;3.20;;;17.80;99.90;;;;;;5137933;27;20453;-39
2023/07/26 08:48:11;;;;;;;4.45;2.92;;;17.30;99.90;;;;;;5137485;27;20504;-39
2023/07/26 08:50:40;;;;;;;6.50;3.45;;;17.00;99.90;;;;;;5136557;27;20086;-39
2023/07/26 08:53:07;;;;;;;4.63;3.08;;;16.90;99.90;;;;;;5136869;27;20043;-39
2023/07/26 08:55:34;;;;;;;7.45;3.63;;;16.70;99.90;;;;;;5125583;27;20042;-39
2023/07/26 08:58:00;;;;;;;5.35;3.70;;;16.70;99.90;;;;;;5138271;27;20472;-39
2023/07/26 09:00:28;;;;;;;10.05;4.35;;;16.60;99.90;;;;;;5128458;27;20039;-39
2023/07/26 09:02:59;;;;;;;4.20;3.33;;;16.60;99.90;;;;;;5116962;27;20043;-39
2023/07/26 09:05:25;;;;;;;5.30;3.38;;;16.50;99.90;;;;;;5098597;27;20054;-39
2023/07/26 09:07:51;;;;;;;6.45;3.78;;;16.60;99.90;;;;;;5096701;27;20051;-39
2023/07/26 09:10:25;;;;;;;4.85;3.28;;;16.70;99.90;;;;;;5103763;27;20127;-39
2023/07/26 09:12:51;;;;;;;5.57;3.85;;;16.80;99.90;;;;;;5117500;27;20124;-39
2023/07/26 09:15:18;;;;;;;6.05;3.63;;;16.80;99.90;;;;;;5097903;27;20114;-39
2023/07/26 09:17:44;;;;;;;4.97;3.30;;;16.70;99.90;;;;;;5115007;27;20051;-39
2023/07/26 09:20:25;;;;;;;5.38;3.40;;;16.80;99.90;;;;;;5114964;27;20401;-39
2023/07/26 09:23:04;;;;;;;4.80;3.65;;;16.70;99.90;;;;;;5115238;27;20051;-39
2023/07/26 09:25:37;;;;;;;6.03;4.13;;;16.80;99.90;;;;;;5110077;27;20047;-39
2023/07/26 09:28:07;;;;;;;6.20;3.80;;;16.70;99.90;;;;;;5116382;27;20413;-39
2023/07/26 09:30:37;;;;;;;6.85;3.80;;;16.80;99.90;;;;;;5114649;27;20043;-39
2023/07/26 09:33:04;;;;;;;8.77;4.78;;;16.90;99.90;;;;;;5117016;27;20489;-39
2023/07/26 09:35:43;;;;;;;5.15;3.78;;;17.10;99.90;;;;;;5116300;27;20130;-39
2023/07/26 09:38:14;;;;;;;6.55;3.75;;;17.20;99.90;;;;;;5117746;27;20039;-39
2023/07/26 09:40:40;;;;;;;4.75;3.47;;;17.40;99.90;;;;;;5096295;27;20055;-39
2023/07/26 09:43:06;;;;;;;5.15;4.03;;;17.50;99.90;;;;;;5113542;27;20062;-39
2023/07/26 09:45:32;;;;;;;4.82;3.60;;;17.80;99.90;;;;;;5096631;27;20050;-39
2023/07/26 09:48:06;;;;;;;4.75;3.60;;;18.10;99.90;;;;;;5115952;27;20108;-39
2023/07/26 09:50:31;;;;;;;6.28;3.95;;;18.00;99.90;;;;;;5115373;27;20042;-39
2023/07/26 09:52:57;;;;;;;4.20;3.22;;;17.90;99.90;;;;;;5117189;27;20058;-39
2023/07/26 09:55:25;;;;;;;4.63;3.55;;;17.70;99.90;;;;;;5137302;27;20096;-39
2023/07/26 09:57:53;;;;;;;4.80;3.53;;;17.70;99.90;;;;;;5118884;27;20477;-39
2023/07/26 10:00:20;;;;;;;8.43;4.30;;;17.60;99.90;;;;;;5135674;27;20043;-39
2023/07/26 10:02:53;;;;;;;5.70;4.00;;;17.50;99.90;;;;;;5136584;27;20050;-39
2023/07/26 10:05:21;;;;;;;7.47;4.05;;;17.30;99.90;;;;;;5136979;27;20050;-40
2023/07/26 10:07:47;;;;;;;4.47;4.05;;;17.20;99.90;;;;;;5118306;27;20047;-39
2023/07/26 10:10:16;;;;;;;5.22;3.55;;;17.10;99.90;;;;;;5109869;27;20053;-39
2023/07/26 10:12:45;;;;;;;2.95;2.20;;;17.00;99.90;;;;;;5136769;27;20039;-39
2023/07/26 10:15:12;;;;;;;4.93;2.15;;;16.80;99.90;;;;;;5127736;27;20127;-39
2023/07/26 10:17:40;;;;;;;7.57;2.90;;;16.70;99.90;;;;;;5115934;27;20058;-39
2023/07/26 10:20:08;;;;;;;6.22;2.70;;;16.80;99.90;;;;;;5115840;27;20075;-39
2023/07/26 10:22:34;;;;;;;3.35;2.33;;;17.20;99.90;;;;;;5115425;27;20083;-39
2023/07/26 10:25:00;;;;;;;3.22;2.10;;;17.50;99.90;;;;;;5107324;27;20453;-39
2023/07/26 10:27:26;;;;;;;5.30;2.72;;;17.70;99.90;;;;;;5114641;27;20416;-39
2023/07/26 10:29:52;;;;;;;3.80;3.03;;;17.90;99.90;;;;;;5114122;27;20051;-39
2023/07/26 10:32:17;;;;;;;4.45;3.80;;;18.20;99.90;;;;;;5114681;27;20084;-39
2023/07/26 10:34:43;;;;;;;6.32;3.67;;;18.20;99.90;;;;;;5114863;27;20127;-39
2023/07/26 10:37:14;;;;;;;6.47;4.68;;;18.40;99.90;;;;;;5115618;27;20043;-39
2023/07/26 10:39:39;;;;;;;4.85;3.65;;;18.40;99.90;;;;;;5114973;27;20039;-39
2023/07/26 10:42:05;;;;;;;6.40;4.38;;;18.30;99.90;;;;;;5133847;27;20053;-39
2023/07/26 10:44:40;;;;;;;5.15;3.78;;;18.20;99.90;;;;;;5117569;27;20042;-39
2023/07/26 10:47:06;;;;;;;6.18;4.47;;;18.10;99.90;;;;;;5115420;27;20154;-39
2023/07/26 10:49:33;;;;;;;5.70;3.83;;;18.20;99.90;;;;;;5114316;27;20047;-39
2023/07/26 10:52:01;;;;;;;6.07;4.05;;;18.20;99.90;;;;;;5096355;27;20058;-39
2023/07/26 10:54:33;;;;;;;5.47;3.75;;;18.40;99.90;;;;;;5115275;27;20386;-39
2023/07/26 10:57:27;;;;;;;5.40;2.80;;;18.60;99.90;;;;;;5096464;28;20050;-39
2023/07/26 11:00:16;;;;;;;3.72;2.95;;;18.90;99.90;;;;;;5113960;27;20636;-39
2023/07/26 11:02:58;;;;;;;3.67;2.35;;;19.10;99.90;;;;;;5115293;27;20175;-40
2023/07/26 11:05:23;;;;;;;4.97;2.50;;;19.20;99.90;;;;;;5104003;27;20493;-40
2023/07/26 11:08:02;;;;;;;5.20;3.17;;;19.30;99.90;;;;;;5113664;27;20135;-39
2023/07/26 11:10:35;;;;;;;3.80;2.60;;;19.40;99.90;;;;;;5093877;27;20104;-39
2023/07/26 11:13:08;;;;;;;4.53;2.78;;;19.50;99.90;;;;;;5136026;27;20043;-40
2023/07/26 11:15:37;;;;;;;4.05;3.00;;;19.50;99.90;;;;;;5122581;27;20497;-39
2023/07/26 11:18:03;;;;;;;10.38;3.65;;;19.40;99.90;;;;;;5114691;27;20043;-39
2023/07/26 11:20:29;;;;;;;5.13;3.28;;;19.40;99.90;;;;;;5113565;28;20130;-39
2023/07/26 11:22:55;;;;;;;6.82;3.40;;;19.70;99.90;;;;;;5114106;27;20740;-39
2023/07/26 11:25:21;;;;;;;6.05;3.90;;;19.90;99.90;;;;;;5107241;27;20047;-40
2023/07/26 11:27:48;;;;;;;5.90;3.72;;;20.20;99.90;;;;;;5114370;27;20054;-39
2023/07/26 11:30:17;;;;;;;6.25;3.58;;;20.30;99.90;;;;;;5112823;28;20047;-40
2023/07/26 11:32:52;;;;;;;4.57;3.53;;;20.30;99.90;;;;;;5096041;28;20047;-42
2023/07/26 11:35:23;;;;;;;5.18;3.58;;;20.20;99.90;;;;;;5113965;27;20055;-40
2023/07/26 11:37:53;;;;;;;5.18;3.42;;;20.20;99.90;;;;;;5114403;27;20452;-40
2023/07/26 11:40:18;;;;;;;6.63;3.22;;;20.10;99.90;;;;;;5112781;27;20205;-40
2023/07/26 11:42:44;;;;;;;7.20;2.80;;;20.10;99.90;;;;;;5114231;27;20485;-40
2023/07/26 11:45:10;;;;;;;4.45;3.35;;;19.90;99.90;;;;;;5105231;27;20420;-40
2023/07/26 11:47:36;;;;;;;7.15;3.47;;;19.80;99.90;;;;;;5109978;27;20044;-40
2023/07/26 11:50:03;;;;;;;3.85;3.08;;;19.80;99.90;;;;;;5113150;27;20074;-40
2023/07/26 11:52:29;;;;;;;4.85;3.72;;;20.00;99.90;;;;;;5114425;28;20092;-40
2023/07/26 11:54:57;;;;;;;7.35;3.75;;;20.00;99.90;;;;;;5113890;27;20598;-39
2023/07/26 11:57:25;;;;;;;6.15;3.55;;;20.10;99.90;;;;;;5114922;27;20389;-40
2023/07/26 11:59:54;;;;;;;5.63;3.10;;;20.40;99.90;;;;;;5094072;28;20138;-40
2023/07/26 12:02:20;;;;;;;4.47;3.05;;;20.50;99.90;;;;;;5096643;28;20503;-40
2023/07/26 12:05:18;;;;;;;6.93;3.10;;;20.80;99.90;;;;;;5114572;27;20445;-40
2023/07/26 12:07:49;;;;;;;5.15;3.53;;;21.00;99.90;;;;;;5095830;27;20066;-39
2023/07/26 12:10:26;;;;;;;5.53;3.88;;;21.20;99.90;;;;;;5111084;27;20103;-41
2023/07/26 12:12:52;;;;;;;7.57;3.83;;;21.10;99.90;;;;;;5119897;27;20564;-40
2023/07/26 12:15:17;;;;;;;6.30;3.67;;;20.90;99.90;;;;;;5109967;27;20051;-40
2023/07/26 12:18:00;;;;;;;5.20;3.53;;;20.90;99.90;;;;;;5118770;27;20170;-40
2023/07/26 12:20:27;;;;;;;6.40;3.67;;;20.80;99.90;;;;;;5098563;27;20390;-40
2023/07/26 12:22:58;;;;;;;5.25;3.55;;;20.80;99.90;;;;;;5123980;27;20122;-40
2023/07/26 12:25:35;;;;;;;5.35;3.42;;;20.80;99.90;;;;;;5110744;27;20043;-40
2023/07/26 12:28:04;;;;;;;4.47;3.22;;;20.60;99.90;;;;;;5105305;27;20089;-41
2023/07/26 12:30:30;;;;;;;4.35;3.42;;;20.30;99.90;;;;;;5116305;27;20144;-41
2023/07/26 12:33:13;;;;;;;6.03;3.70;;;19.90;99.90;;;;;;5117840;27;20085;-40
2023/07/26 12:35:46;;;;;;;4.43;3.25;;;19.60;99.90;;;;;;5116778;27;20128;-40
2023/07/26 12:38:18;;;;;;;6.38;3.78;;;19.50;99.90;;;;;;5118048;27;20072;-40
2023/07/26 12:40:46;;;;;;;6.00;3.45;;;19.70;99.90;;;;;;5097247;27;20888;-40
2023/07/26 12:43:30;;;;;;;6.80;4.03;;;19.70;99.90;;;;;;5077704;28;20051;-40
2023/07/26 12:46:03;;;;;;;5.70;3.22;;;19.80;99.90;;;;;;5114119;27;20142;-40
2023/07/26 12:48:30;;;;;;;7.13;3.97;;;19.80;99.90;;;;;;5138507;27;20047;-40
2023/07/26 12:50:56;;;;;;;8.60;3.78;;;19.50;99.90;;;;;;5137231;27;20387;-40
2023/07/26 12:53:23;;;;;;;6.38;3.70;;;19.50;99.90;;;;;;5138445;27;20042;-40
2023/07/26 12:55:50;;;;;;;7.90;4.60;;;19.50;99.90;;;;;;5137849;27;20054;-40
2023/07/26 12:58:16;;;;;;;7.32;4.05;;;19.70;99.90;;;;;;5138308;27;20091;-39
2023/07/26 13:00:42;;;;;;;8.63;3.80;;;19.90;99.90;;;;;;5136294;27;20053;-39
2023/07/26 13:03:08;;;;;;;6.65;3.85;;;19.90;99.90;;;;;;5118968;27;20055;-39
2023/07/26 13:05:34;;;;;;;5.82;3.40;;;19.90;99.90;;;;;;5137846;27;20440;-39
2023/07/26 13:08:01;;;;;;;5.97;3.63;;;19.70;99.90;;;;;;5131976;27;20042;-39
2023/07/26 13:10:27;;;;;;;5.90;3.70;;;19.60;99.90;;;;;;5115056;27;20494;-40
2023/07/26 13:12:54;;;;;;;5.45;3.70;;;19.50;99.90;;;;;;5137197;27;20126;-39
2023/07/26 13:15:20;;;;;;;6.15;3.15;;;19.40;99.90;;;;;;5127476;27;20050;-41
2023/07/26 13:17:47;;;;;;;6.10;4.10;;;19.40;99.90;;;;;;5116281;27;20433;-40
2023/07/26 13:20:14;;;;;;;6.32;3.60;;;19.40;99.90;;;;;;5115651;27;20085;-40
2023/07/26 13:22:40;;;;;;;5.40;3.22;;;19.30;99.90;;;;;;5097088;27;20516;-40
2023/07/26 13:25:07;;;;;;;8.27;3.75;;;19.30;99.90;;;;;;5108474;27;20039;-41
2023/07/26 13:27:32;;;;;;;6.35;4.10;;;19.20;99.90;;;;;;5116747;27;20089;-40
2023/07/26 13:29:58;;;;;;;6.05;3.35;;;19.30;99.90;;;;;;5115377;27;20145;-40
2023/07/26 13:32:24;;;;;;;6.05;3.30;;;19.50;99.90;;;;;;5116762;27;20046;-40
2023/07/26 13:34:50;;;;;;;5.70;3.20;;;19.70;99.90;;;;;;5116163;27;20058;-40
2023/07/26 13:37:15;;;;;;;7.13;3.47;;;19.70;99.90;;;;;;5115494;27;20047;-40
2023/07/26 13:39:44;;;;;;;6.07;3.38;;;19.60;99.90;;;;;;5115682;27;20047;-40
2023/07/26 13:42:09;;;;;;;7.75;3.55;;;19.80;99.90;;;;;;5116138;27;20131;-41
2023/07/26 13:44:36;;;;;;;6.35;3.60;;;19.80;99.90;;;;;;5122695;27;20043;-40
2023/07/26 13:47:01;;;;;;;6.53;3.00;;;20.00;99.90;;;;;;5118652;27;20528;-40
2023/07/26 13:49:27;;;;;;;4.38;2.83;;;19.80;99.90;;;;;;5125796;27;20149;-40
2023/07/26 13:51:53;;;;;;;5.35;2.97;;;19.80;99.90;;;;;;5137099;27;20511;-40
2023/07/26 13:54:18;;;;;;;7.05;3.45;;;20.00;99.90;;;;;;5137085;27;20051;-40
2023/07/26 13:56:44;;;;;;;4.78;2.85;;;20.20;99.90;;;;;;5099145;27;20061;-41
2023/07/26 13:59:10;;;;;;;3.95;3.03;;;20.50;99.90;;;;;;5095630;27;20103;-40
2023/07/26 14:01:36;;;;;;;5.00;3.15;;;20.60;99.90;;;;;;5115634;27;20051;-42
2023/07/26 14:04:02;;;;;;;7.05;3.45;;;20.70;99.90;;;;;;5116379;27;20406;-42
2023/07/26 14:06:29;;;;;;;30.02;10.07;;;20.60;99.90;;;;;;5097051;27;20046;-40
2023/07/26 14:08:56;;;;;;;9.75;3.78;;;20.30;99.90;;;;;;5104208;27;20542;-40
2023/07/26 14:11:21;;;;;;;9.00;3.20;;;20.20;99.90;;;;;;5093416;27;20123;-40
2023/07/26 14:13:47;;;;;;;6.80;3.85;;;20.00;99.90;;;;;;5114625;27;20519;-40
2023/07/26 14:16:13;;;;;;;5.63;3.72;;;19.70;99.90;;;;;;5114614;27;20050;-40
2023/07/26 14:18:39;;;;;;;7.47;4.22;;;19.90;99.90;;;;;;5113923;27;20039;-40
2023/07/26 14:21:05;;;;;;;5.28;3.72;;;20.10;99.90;;;;;;5095820;27;20070;-40
2023/07/26 14:23:32;;;;;;;4.28;3.30;;;20.10;99.90;;;;;;5110474;27;20043;-40
2023/07/26 14:25:59;;;;;;;6.43;3.83;;;20.20;99.90;;;;;;5112889;27;20050;-40
2023/07/26 14:28:25;;;;;;;8.27;3.95;;;20.20;99.90;;;;;;5096950;27;20057;-40
2023/07/26 14:30:51;;;;;;;6.93;4.07;;;20.30;99.90;;;;;;5114726;27;20047;-40
2023/07/26 14:33:20;;;;;;;6.45;3.50;;;20.20;99.90;;;;;;5114916;27;20046;-41
2023/07/26 14:35:46;;;;;;;8.43;3.92;;;20.30;99.90;;;;;;5115931;27;20093;-41
2023/07/26 14:38:12;;;;;;;7.47;3.60;;;20.10;99.90;;;;;;5115028;27;20066;-40
2023/07/26 14:40:38;;;;;;;7.10;4.15;;;20.20;99.90;;;;;;5114339;27;20796;-40
2023/07/26 14:43:04;;;;;;;5.72;3.78;;;20.40;99.90;;;;;;5101731;27;20134;-41
2023/07/26 14:45:30;;;;;;;7.43;4.10;;;20.30;99.90;;;;;;5114318;27;20408;-41
2023/07/26 14:47:56;;;;;;;7.53;3.50;;;20.30;99.90;;;;;;5117465;27;20058;-41
2023/07/26 14:50:22;;;;;;;9.38;3.85;;;20.20;99.90;;;;;;5134645;27;20543;-40
2023/07/26 14:52:47;;;;;;;5.95;3.78;;;20.20;99.90;;;;;;5135657;27;20042;-41
2023/07/26 14:55:13;;;;;;;6.43;3.28;;;20.20;99.90;;;;;;5129573;27;20445;-40
2023/07/26 14:57:39;;;;;;;6.65;3.42;;;20.20;99.90;;;;;;5096350;27;20062;-40
2023/07/26 15:00:06;;;;;;;7.05;3.33;;;20.30;99.90;;;;;;5114015;27;20079;-40
2023/07/26 15:02:32;;;;;;;5.55;3.30;;;20.20;99.90;;;;;;5115086;27;20080;-40
2023/07/26 15:04:58;;;;;;;6.18;3.53;;;20.20;99.90;;;;;;5114642;27;20047;-41
2023/07/26 15:07:24;;;;;;;6.15;3.58;;;20.20;99.90;;;;;;5114692;27;20058;-40
2023/07/26 15:09:50;;;;;;;7.88;3.15;;;20.50;99.90;;;;;;5104552;27;20078;-41
2023/07/26 15:12:16;;;;;;;6.60;4.07;;;20.40;99.90;;;;;;5135736;27;20153;-40
2023/07/26 15:14:42;;;;;;;4.53;3.47;;;20.30;99.90;;;;;;5130307;27;20047;-40
2023/07/26 15:17:08;;;;;;;6.00;3.10;;;20.30;99.90;;;;;;5097213;28;20054;-40
2023/07/26 15:19:34;;;;;;;6.72;3.40;;;20.40;99.90;;;;;;5114209;27;20418;-40
2023/07/26 15:22:00;;;;;;;6.88;3.63;;;20.50;99.90;;;;;;5115376;27;20055;-40
2023/07/26 15:24:26;;;;;;;7.93;3.38;;;20.60;99.90;;;;;;5111460;27;20582;-40
2023/07/26 15:26:52;;;;;;;5.22;3.35;;;20.60;99.90;;;;;;5135580;27;20640;-41
2023/07/26 15:29:17;;;;;;;6.22;3.28;;;20.70;99.90;;;;;;5134585;27;20078;-40
2023/07/26 15:31:43;;;;;;;6.93;3.35;;;20.80;99.90;;;;;;5135724;27;20493;-41
2023/07/26 15:34:09;;;;;;;8.48;3.80;;;20.80;99.90;;;;;;5135437;27;20051;-40
2023/07/26 15:36:36;;;;;;;5.65;3.00;;;20.80;99.90;;;;;;5134985;27;20042;-40
2023/07/26 15:39:01;;;;;;;5.03;3.20;;;20.70;99.90;;;;;;5134353;27;20092;-40